createdAt,value
2023-04-12T00:00:02.448Z,98267.19
2023-04-12T00:05:55.961Z,98265.62
2023-04-12T00:08:27.232Z,98267.27
2023-04-12T00:10:57.122Z,98262.09
2023-04-12T00:13:27.197Z,98262.38
2023-04-12T00:15:57.272Z,98261.00
2023-04-12T00:18:28.054Z,98261.00
2023-04-12T00:20:58.719Z,98263.73
2023-04-12T00:23:48.433Z,98259.09
2023-04-12T00:26:04.838Z,98254.71
2023-04-12T00:28:34.792Z,98255.56
2023-04-12T00:31:04.992Z,98256.97
2023-04-12T00:33:38.812Z,98254.50
2023-04-12T00:36:09.418Z,98252.04
2023-04-12T00:39:05.273Z,98258.88
2023-04-12T00:41:59.000Z,98262.16
2023-04-12T00:44:29.803Z,98251.49
2023-04-12T00:47:01.344Z,98249.00
2023-04-12T00:49:31.898Z,98257.55
2023-04-12T00:52:06.381Z,98254.81
2023-04-12T00:54:36.382Z,98256.17
2023-04-12T00:57:06.395Z,98257.00
2023-04-12T01:02:31.532Z,98259.70
2023-04-12T01:05:02.240Z,98254.74
2023-04-12T01:07:37.153Z,98252.25
2023-04-12T01:10:18.603Z,98256.11
2023-04-12T01:13:08.089Z,98252.86
2023-04-12T01:15:39.648Z,98259.70
2023-04-12T01:18:16.289Z,98255.33
2023-04-12T01:21:16.492Z,98256.69
2023-04-12T01:24:08.940Z,98256.69
2023-04-12T01:27:14.839Z,98259.43
2023-04-12T01:30:07.028Z,98265.41
2023-04-12T01:32:39.152Z,98264.35
2023-04-12T01:35:10.162Z,98268.70
2023-04-12T01:37:40.786Z,98266.75
2023-04-12T01:40:11.648Z,98263.98
2023-04-12T01:42:41.790Z,98272.45
2023-04-12T01:45:41.979Z,98280.66
2023-04-12T01:48:30.250Z,98275.73
2023-04-12T01:51:18.631Z,98275.98
2023-04-12T01:57:47.594Z,98284.73
2023-04-12T02:03:31.350Z,98288.56
2023-04-12T02:07:05.539Z,98287.64
2023-04-12T02:09:46.402Z,98295.64
2023-04-12T02:15:51.765Z,98306.58
2023-04-12T02:18:24.844Z,98304.08
2023-04-12T02:27:34.580Z,98307.09
2023-04-12T02:30:42.790Z,98314.47
2023-04-12T02:33:27.260Z,98318.81
2023-04-12T02:39:35.590Z,98321.27
2023-04-12T02:42:28.290Z,98332.22
2023-04-12T02:45:19.877Z,98332.76
2023-04-12T02:47:52.123Z,98336.31
2023-04-12T02:50:23.678Z,98339.83
2023-04-12T02:52:53.869Z,98333.00
2023-04-12T02:55:24.064Z,98339.83
2023-04-12T02:57:54.447Z,98337.34
2023-04-12T03:03:52.389Z,98341.78
2023-04-12T03:06:31.868Z,98343.89
2023-04-12T03:09:27.084Z,98345.81
2023-04-12T03:11:57.649Z,98340.89
2023-04-12T03:14:29.494Z,98340.03
2023-04-12T03:17:00.696Z,98347.96
2023-04-12T03:19:32.005Z,98343.58
2023-04-12T03:22:07.013Z,98342.76
2023-04-12T03:24:41.228Z,98343.27
2023-04-12T03:27:25.718Z,98347.09
2023-04-12T03:29:56.717Z,98351.20
2023-04-12T03:32:27.381Z,98356.08
2023-04-12T03:34:58.745Z,98349.80
2023-04-12T03:37:31.165Z,98321.05
2023-04-12T03:40:15.720Z,98351.40
2023-04-12T03:43:08.793Z,98354.13
2023-04-12T03:46:10.295Z,98356.59
2023-04-12T03:52:16.495Z,98354.95
2023-04-12T03:54:57.661Z,98354.91
2023-04-12T03:57:42.086Z,98356.51
2023-04-12T04:01:04.527Z,98348.85
2023-04-12T04:03:48.460Z,98350.45
2023-04-12T04:06:45.741Z,98347.65
2023-04-12T04:15:01.788Z,98353.92
2023-04-12T04:17:32.514Z,98349.52
2023-04-12T04:20:03.720Z,98349.24
2023-04-12T04:22:33.863Z,98345.88
2023-04-12T04:25:22.717Z,98336.90
2023-04-12T04:28:10.424Z,98336.90
2023-04-12T04:30:52.993Z,98338.81
2023-04-12T04:33:59.551Z,98332.52
2023-04-12T04:37:08.927Z,98336.31
2023-04-12T04:40:14.940Z,98321.78
2023-04-12T04:46:07.879Z,98331.07
2023-04-12T04:48:56.290Z,98320.38
2023-04-12T04:55:00.671Z,98323.38
2023-04-12T05:01:00.465Z,98320.05
2023-04-12T06:02:23.055Z,98299.67
2023-04-12T06:08:40.543Z,98299.94
2023-04-12T06:12:32.645Z,98293.89
2023-04-12T06:15:18.493Z,98292.52
2023-04-12T06:17:51.673Z,98290.57
2023-04-12T06:20:45.421Z,98288.38
2023-04-12T06:30:17.589Z,98276.83
2023-04-12T06:32:47.527Z,98262.57
2023-04-12T06:36:09.887Z,98272.99
2023-04-12T06:38:39.883Z,98259.25
2023-04-12T06:41:44.801Z,98261.20
2023-04-12T06:44:34.043Z,98258.98
2023-04-12T06:47:42.775Z,98248.87
2023-04-12T06:50:51.452Z,98248.56
2023-04-12T06:53:48.068Z,98236.53
2023-04-12T06:56:51.168Z,98240.86
2023-04-12T06:59:27.295Z,98237.55
2023-04-12T07:02:37.834Z,98233.45
2023-04-12T07:05:56.411Z,98224.04
2023-04-12T07:09:06.539Z,98217.25
2023-04-12T07:11:55.768Z,98214.25
2023-04-12T07:14:31.950Z,98214.48
2023-04-12T07:17:18.404Z,98207.38
2023-04-12T07:19:49.700Z,98209.80
2023-04-12T07:22:19.627Z,98208.16
2023-04-12T07:24:51.076Z,98205.97
2023-04-12T07:27:21.152Z,98199.64
2023-04-12T07:29:55.388Z,98202.37
2023-04-12T07:35:42.557Z,98193.28
2023-04-12T07:44:40.282Z,98180.67
2023-04-12T07:56:51.804Z,98176.45
2023-04-12T07:59:42.267Z,98158.34
2023-04-12T08:02:46.232Z,98167.16
2023-04-12T08:08:59.339Z,98154.52
2023-04-12T08:11:58.107Z,98144.93
2023-04-12T08:14:39.832Z,98154.20
2023-04-12T08:17:57.363Z,98153.38
2023-04-12T08:20:33.968Z,98145.16
2023-04-12T08:25:52.752Z,98137.74
2023-04-12T08:28:24.093Z,98138.52
2023-04-12T08:30:54.472Z,98136.88
2023-04-12T08:33:25.898Z,98131.14
2023-04-12T08:36:23.760Z,98134.10
2023-04-12T08:38:58.020Z,98131.91
2023-04-12T08:42:24.376Z,98130.27
2023-04-12T08:48:00.579Z,98122.55
2023-04-12T08:50:53.111Z,98129.64
2023-04-12T08:54:04.835Z,98123.05
2023-04-12T08:56:52.609Z,98123.00
2023-04-12T08:59:52.601Z,98122.19
2023-04-12T09:02:39.080Z,98123.27
2023-04-12T09:05:17.870Z,98121.32
2023-04-12T09:07:45.811Z,98119.67
2023-04-12T09:10:17.133Z,98115.81
2023-04-12T09:12:52.831Z,98118.27
2023-04-12T09:15:30.194Z,98127.50
2023-04-12T09:18:17.276Z,98119.81
2023-04-12T09:20:55.882Z,98119.81
2023-04-12T09:23:39.823Z,98088.36
2023-04-12T09:26:10.441Z,98116.22
2023-04-12T09:28:40.482Z,98124.13
2023-04-12T09:31:10.719Z,98119.72
2023-04-12T09:33:43.727Z,98118.05
2023-04-12T09:36:18.416Z,98119.59
2023-04-12T09:39:06.434Z,98125.64
2023-04-12T09:44:42.263Z,98128.87
2023-04-12T09:47:13.913Z,98134.32
2023-04-12T09:49:45.042Z,98129.09
2023-04-12T09:52:16.349Z,98135.91
2023-04-12T09:54:52.528Z,98132.32
2023-04-12T09:57:24.027Z,98131.22
2023-04-12T09:59:58.155Z,98131.77
2023-04-12T10:03:16.086Z,98136.63
2023-04-12T10:05:46.915Z,98134.95
2023-04-12T10:08:19.564Z,98139.58
2023-04-12T10:10:49.584Z,98125.30
2023-04-12T10:13:20.288Z,98140.08
2023-04-12T10:15:51.710Z,98135.39
2023-04-12T10:18:24.489Z,98135.66
2023-04-12T10:20:59.796Z,98138.07
2023-04-12T10:24:08.311Z,98139.70
2023-04-12T10:26:17.856Z,98140.23
2023-04-12T10:28:51.265Z,98132.83
2023-04-12T10:31:50.624Z,98128.46
2023-04-12T10:34:20.767Z,98130.05
2023-04-12T10:37:01.300Z,98133.32
2023-04-12T10:39:42.966Z,98106.40
2023-04-12T10:42:25.936Z,98121.23
2023-04-12T10:45:12.370Z,98127.23
2023-04-12T10:48:09.822Z,98123.91
2023-04-12T10:54:22.769Z,98130.67
2023-04-12T10:57:16.653Z,98119.88
2023-04-12T11:00:09.936Z,98131.70
2023-04-12T11:09:07.995Z,98104.23
2023-04-12T11:12:11.024Z,98142.50
2023-04-12T11:15:12.381Z,98146.00
2023-04-12T11:18:07.312Z,98144.35
2023-04-12T11:20:53.061Z,98145.12
2023-04-12T11:23:24.153Z,98147.02
2023-04-12T11:25:59.219Z,98142.34
2023-04-12T11:28:33.244Z,98145.33
2023-04-12T11:31:06.294Z,98152.09
2023-04-12T11:33:41.087Z,98149.91
2023-04-12T11:36:16.590Z,98148.72
2023-04-12T11:39:16.350Z,98154.22
2023-04-12T11:42:07.225Z,98159.39
2023-04-12T11:44:55.269Z,98156.35
2023-04-12T11:50:35.242Z,98150.56
2023-04-12T11:53:20.282Z,98149.43
2023-04-12T11:55:53.034Z,98152.41
2023-04-12T11:58:30.303Z,98157.58
2023-04-12T12:01:03.595Z,98158.63
2023-04-12T12:03:34.073Z,98152.75
2023-04-12T12:09:38.286Z,98160.16
2023-04-12T12:12:33.461Z,98158.48
2023-04-12T12:15:21.194Z,98162.34
2023-04-12T12:18:19.556Z,98171.06
2023-04-12T12:24:21.602Z,98174.06
2023-04-12T12:27:16.353Z,98181.64
2023-04-12T12:33:35.165Z,98189.53
2023-04-12T12:39:57.518Z,98195.46
2023-04-12T12:42:45.918Z,98197.36
2023-04-12T12:45:54.260Z,98199.23
2023-04-12T12:49:03.004Z,98210.92
2023-04-12T12:51:48.570Z,98204.12
2023-04-12T12:54:58.326Z,98207.89
2023-04-12T12:57:36.582Z,98211.69
2023-04-12T13:00:56.942Z,98223.41
2023-04-12T13:03:53.844Z,98197.17
2023-04-12T13:06:45.770Z,98220.09
2023-04-12T13:09:24.657Z,98230.16
2023-04-12T13:15:53.729Z,98238.33
2023-04-12T13:18:32.025Z,98234.25
2023-04-12T13:21:24.372Z,98242.13
2023-04-12T13:25:52.830Z,98244.86
2023-04-12T13:26:41.813Z,98243.72
2023-04-12T13:29:11.781Z,98245.08
2023-04-12T13:31:41.933Z,98245.63
2023-04-12T13:34:11.916Z,98244.26
2023-04-12T13:37:23.756Z,98238.27
2023-04-12T13:39:53.943Z,98236.09
2023-04-12T13:42:32.882Z,98237.45
2023-04-12T13:45:41.142Z,98225.33
2023-04-12T13:48:24.087Z,98240.94
2023-04-12T13:50:55.707Z,98233.59
2023-04-12T13:53:25.974Z,98235.80
2023-04-12T13:55:55.949Z,98239.03
2023-04-12T13:58:27.874Z,98238.52
2023-04-12T14:01:00.779Z,98239.58
2023-04-12T14:03:53.018Z,98235.48
2023-04-12T14:06:34.226Z,98226.78
2023-04-12T14:15:43.461Z,98215.06
2023-04-12T14:18:45.525Z,98214.52
2023-04-12T14:21:42.033Z,98213.35
2023-04-12T14:25:10.111Z,98212.33
2023-04-12T14:28:18.908Z,98210.97
2023-04-12T14:30:50.164Z,98195.70
2023-04-12T14:33:55.569Z,98196.75
2023-04-12T14:36:41.706Z,98197.61
2023-04-12T14:40:11.215Z,98199.80
2023-04-12T14:43:08.524Z,98196.25
2023-04-12T14:45:41.300Z,98191.62
2023-04-12T14:52:18.147Z,98188.58
2023-04-12T14:55:04.802Z,98183.93
2023-04-12T14:58:19.904Z,98188.90
2023-04-12T15:00:49.993Z,98185.64
2023-04-12T15:04:08.286Z,98188.36
2023-04-12T15:06:56.368Z,98189.72
2023-04-12T15:12:59.102Z,98182.09
2023-04-12T15:16:06.956Z,98175.56
2023-04-12T15:19:28.219Z,98167.93
2023-04-12T15:22:33.903Z,98167.27
2023-04-12T15:25:19.080Z,98178.60
2023-04-12T15:28:27.445Z,98164.98
2023-04-12T15:30:59.573Z,98167.93
2023-04-12T15:33:53.017Z,98172.61
2023-04-12T15:36:56.676Z,98165.80
2023-04-12T15:40:15.830Z,98166.63
2023-04-12T15:42:56.575Z,98158.45
2023-04-12T15:49:19.264Z,98153.83
2023-04-12T15:52:00.149Z,98157.37
2023-04-12T15:55:04.722Z,98144.07
2023-04-12T16:01:48.573Z,98137.75
2023-04-12T16:04:19.048Z,98137.75
2023-04-12T16:10:13.443Z,98135.21
2023-04-12T16:13:22.628Z,98132.38
2023-04-12T16:16:13.118Z,98131.87
2023-04-12T16:19:26.240Z,98130.79
2023-04-12T16:21:56.366Z,98114.33
2023-04-12T16:27:14.882Z,98109.28
2023-04-12T16:29:44.838Z,98109.59
2023-04-12T16:32:14.757Z,98098.16
2023-04-12T16:34:45.214Z,98096.25
2023-04-12T16:37:36.970Z,98092.98
2023-04-12T16:40:13.945Z,98086.17
2023-04-12T16:49:40.414Z,98069.34
2023-04-12T16:52:19.207Z,98057.39
2023-04-12T16:58:44.253Z,98060.41
2023-04-12T17:01:44.963Z,98049.81
2023-04-12T17:04:57.068Z,98047.38
2023-04-12T17:07:27.893Z,98046.83
2023-04-12T17:10:20.006Z,98048.73
2023-04-12T17:13:49.407Z,98030.16
2023-04-12T17:16:37.326Z,98034.37
2023-04-12T17:19:09.960Z,98033.83
2023-04-12T17:31:55.085Z,98019.72
2023-04-12T17:34:32.270Z,98010.46
2023-04-12T17:37:24.527Z,98004.78
2023-04-12T17:40:35.615Z,97974.20
2023-04-12T17:43:27.377Z,97995.84
2023-04-12T17:46:34.972Z,98002.11
2023-04-12T17:49:20.309Z,97989.30
2023-04-12T17:55:19.416Z,97978.17
2023-04-12T17:59:02.112Z,97980.90
2023-04-12T18:01:33.376Z,97965.37
2023-04-12T18:04:28.318Z,97952.56
2023-04-12T18:10:27.460Z,97961.88
2023-04-12T18:13:17.235Z,97960.02
2023-04-12T18:16:14.230Z,97948.56
2023-04-12T18:21:32.033Z,97933.86
2023-04-12T18:24:03.225Z,97920.73
2023-04-12T18:26:33.406Z,97922.18
2023-04-12T18:29:16.837Z,97913.73
2023-04-12T18:32:01.837Z,97915.95
2023-04-12T18:37:54.798Z,97902.14
2023-04-12T18:41:16.033Z,97897.16
2023-04-12T18:43:40.687Z,97892.33
2023-04-12T18:46:21.015Z,97881.47
2023-04-12T18:49:26.801Z,97883.93
2023-04-12T18:52:45.032Z,97870.61
2023-04-12T18:55:35.875Z,97871.97
2023-04-12T18:58:55.248Z,97866.80
2023-04-12T19:01:32.792Z,97855.89
2023-04-12T19:04:14.194Z,97852.11
2023-04-12T19:06:46.104Z,97848.84
2023-04-12T19:09:18.743Z,97816.44
2023-04-12T19:11:50.296Z,97829.48
2023-04-12T19:17:12.327Z,97825.78
2023-04-12T19:19:45.192Z,97823.26
2023-04-12T19:22:31.291Z,97823.53
2023-04-12T19:28:37.295Z,97795.61
2023-04-12T19:37:47.227Z,97794.00
2023-04-12T19:40:27.027Z,97790.38
2023-04-12T19:42:58.433Z,97786.84
2023-04-12T19:45:29.412Z,97790.70
2023-04-12T19:47:59.432Z,97786.88
2023-04-12T19:50:30.725Z,97769.02
2023-04-12T19:53:04.172Z,97786.64
2023-04-12T19:56:01.481Z,97780.09
2023-04-12T19:58:43.077Z,97773.04
2023-04-12T20:05:11.069Z,97770.63
2023-04-12T20:07:49.802Z,97763.56
2023-04-12T20:10:35.842Z,97760.30
2023-04-12T20:15:56.491Z,97757.88
2023-04-12T20:18:26.869Z,97745.91
2023-04-12T20:20:58.263Z,97738.00
2023-04-12T20:23:28.342Z,97728.45
2023-04-12T20:29:52.614Z,97730.67
2023-04-12T20:32:39.602Z,97719.25
2023-04-12T20:35:33.851Z,97697.34
2023-04-12T20:38:06.504Z,97716.58
2023-04-12T20:40:38.263Z,97711.16
2023-04-12T20:45:57.638Z,97697.55
2023-04-12T20:48:27.615Z,97692.39
2023-04-12T20:50:58.960Z,97688.06
2023-04-12T20:53:28.903Z,97687.27
2023-04-12T20:56:45.646Z,97673.36
2023-04-12T20:59:19.292Z,97681.56
2023-04-12T21:02:25.345Z,97670.14
2023-04-12T21:05:12.358Z,97662.47
2023-04-12T21:08:48.345Z,97664.70
2023-04-12T21:12:12.500Z,97659.52
2023-04-12T21:14:42.441Z,97665.03
2023-04-12T21:17:12.565Z,97654.14
2023-04-12T21:19:42.569Z,97644.89
2023-04-12T21:22:12.668Z,97638.86
2023-04-12T21:24:42.565Z,97639.45
2023-04-12T21:27:12.806Z,97637.57
2023-04-12T21:29:42.737Z,97630.22
2023-04-12T21:32:13.160Z,97633.52
2023-04-12T21:34:59.142Z,97630.52
2023-04-12T21:37:45.108Z,97623.99
2023-04-12T21:40:15.116Z,97625.65
2023-04-12T21:42:45.885Z,97628.40
2023-04-12T21:45:15.917Z,97605.09
2023-04-12T21:47:45.939Z,97617.22
2023-04-12T21:50:16.424Z,97607.42
2023-04-12T21:53:01.895Z,97601.71
2023-04-12T21:55:46.828Z,97604.46
2023-04-12T21:58:17.578Z,97591.04
2023-04-12T22:00:47.887Z,97597.12
2023-04-12T22:03:18.038Z,97596.84
2023-04-12T22:06:00.788Z,97598.78
2023-04-12T22:08:21.126Z,97591.45
2023-04-12T22:11:11.717Z,97595.30
2023-04-12T22:17:47.812Z,97587.39
2023-04-12T22:20:52.069Z,97584.13
2023-04-12T22:23:34.862Z,97576.20
2023-04-12T22:26:23.431Z,97582.80
2023-04-12T22:29:07.359Z,97584.19
2023-04-12T22:35:20.737Z,97578.73
2023-04-12T22:47:43.118Z,97566.77
2023-04-12T22:50:33.313Z,97568.41
2023-04-12T22:56:11.908Z,97558.05
2023-04-12T22:59:30.038Z,97563.26
2023-04-12T23:02:41.104Z,97563.83
2023-04-12T23:05:38.008Z,97564.65
2023-04-12T23:08:26.442Z,97560.30
2023-04-12T23:15:21.914Z,97555.41
2023-04-12T23:17:55.971Z,97544.48
2023-04-12T23:20:35.028Z,97548.86
2023-04-12T23:26:08.860Z,97545.85
2023-04-12T23:28:43.259Z,97549.15
2023-04-12T23:31:13.392Z,97552.70
2023-04-12T23:33:46.435Z,97548.61
2023-04-12T23:36:17.462Z,97560.13
2023-04-12T23:38:48.006Z,97552.75
2023-04-12T23:41:20.431Z,97557.41
2023-04-12T23:50:57.032Z,97549.23
2023-04-12T23:54:08.379Z,97543.48
2023-04-12T23:56:38.755Z,97545.69
2023-04-12T23:59:27.800Z,97542.95
